Time;durP1;ratioP1;P1;durP2;ratioP2;P2;SDS_P1;SDS_P2;PMS_P1;PMS_P2;Temp;Humidity;BMP_temperature;BMP_pressure;BME280_temperature;BME280_humidity;BME280_pressure;Samples;Min_cycle;Max_cycle;Signal;HPM_P1;HPM_P2
2023/03/03 00:00:16;;;;;;;43.75;27.77;;;;;;;5.17;79.37;98262.19;4179204;28;20437;-81
2023/03/03 00:02:19;;;;;;;45.53;28.45;;;;;;;5.13;79.89;98265.81;4186417;28;20211;-81
2023/03/03 00:04:22;;;;;;;43.90;27.77;;;;;;;5.14;80.02;98275.25;4183041;28;20210;-81
2023/03/03 00:06:26;;;;;;;43.60;26.92;;;;;;;5.13;80.37;98269.28;4188572;28;20218;-81
2023/03/03 00:08:29;;;;;;;42.15;27.33;;;;;;;5.09;80.37;98267.75;4181645;28;20692;-80
2023/03/03 00:10:32;;;;;;;45.03;29.00;;;;;;;5.02;79.78;98272.38;4193823;28;20208;-81
2023/03/03 00:12:35;;;;;;;41.78;27.30;;;;;;;4.96;79.57;98267.47;4186558;28;20559;-81
2023/03/03 00:14:40;;;;;;;44.85;26.65;;;;;;;4.91;79.94;98278.91;4172215;28;20585;-81
2023/03/03 00:16:43;;;;;;;44.70;26.95;;;;;;;4.88;78.75;98264.34;4187557;28;20233;-81
2023/03/03 00:18:47;;;;;;;45.67;28.33;;;;;;;4.83;79.27;98266.31;4188002;28;20194;-81
2023/03/03 00:20:53;;;;;;;40.40;27.92;;;;;;;4.81;79.56;98268.13;4188677;28;20221;-81
2023/03/03 00:22:56;;;;;;;44.53;27.30;;;;;;;4.75;79.39;98264.94;4177517;28;20229;-81
2023/03/03 00:25:24;;;;;;;38.33;25.10;;;;;;;4.65;80.32;98266.25;4189588;28;20271;-81
2023/03/03 00:27:30;;;;;;;39.90;26.65;;;;;;;4.63;81.08;98264.63;4191378;28;20209;-81
2023/03/03 00:29:35;;;;;;;43.70;25.75;;;;;;;4.60;80.07;98264.75;4189258;28;20225;-81
2023/03/03 00:31:40;;;;;;;40.17;26.08;;;;;;;4.59;80.35;98269.09;4189780;28;20204;-80
2023/03/03 00:33:47;;;;;;;46.22;29.27;;;;;;;4.58;80.11;98270.00;4176591;28;20210;-81
2023/03/03 00:35:51;;;;;;;38.50;27.52;;;;;;;4.51;80.31;98276.34;4191337;28;20215;-81
2023/03/03 00:37:56;;;;;;;44.60;27.33;;;;;;;4.45;80.85;98268.84;4205568;28;20274;-81
2023/03/03 00:40:11;;;;;;;42.20;27.15;;;;;;;4.43;80.73;98270.63;4187679;28;20198;-81
2023/03/03 00:42:16;;;;;;;42.72;26.60;;;;;;;4.37;80.80;98270.88;4191388;28;20221;-81
2023/03/03 00:44:46;;;;;;;41.83;27.75;;;;;;;4.31;81.67;98265.13;4192517;28;20213;-81
2023/03/03 00:46:52;;;;;;;41.90;26.45;;;;;;;4.23;80.83;98268.03;4160498;28;20206;-80
2023/03/03 00:48:55;;;;;;;41.70;24.73;;;;;;;4.22;81.12;98261.22;4190614;28;20293;-81
2023/03/03 00:51:00;;;;;;;43.42;27.95;;;;;;;4.28;81.33;98270.41;4179433;28;20212;-81
2023/03/03 00:53:06;;;;;;;38.63;25.27;;;;;;;4.25;81.29;98265.38;4187085;28;20205;-81
2023/03/03 00:55:10;;;;;;;43.85;27.65;;;;;;;4.28;81.88;98273.88;4186094;28;20237;-81
2023/03/03 00:57:14;;;;;;;43.15;26.60;;;;;;;4.26;82.26;98265.31;4186437;28;20206;-81
2023/03/03 00:59:18;;;;;;;38.53;25.45;;;;;;;4.27;82.84;98279.09;4189686;28;20223;-81
2023/03/03 01:01:21;;;;;;;39.67;25.80;;;;;;;4.23;82.20;98272.34;4191147;28;20617;-81
2023/03/03 01:03:28;;;;;;;42.92;25.88;;;;;;;4.20;82.73;98270.72;4175240;28;20615;-81
2023/03/03 01:05:32;;;;;;;41.60;25.90;;;;;;;4.17;81.97;98276.94;4192768;28;20197;-81
2023/03/03 01:07:36;;;;;;;42.13;25.60;;;;;;;4.16;81.45;98270.09;4187671;28;20720;-81
2023/03/03 01:09:39;;;;;;;40.05;25.40;;;;;;;4.15;82.44;98279.56;4170525;28;20969;-80
2023/03/03 01:11:42;;;;;;;37.33;25.05;;;;;;;4.14;82.35;98266.75;4189510;28;20296;-80
2023/03/03 01:13:47;;;;;;;44.22;26.58;;;;;;;4.06;81.79;98273.91;4170970;28;20795;-80
2023/03/03 01:15:51;;;;;;;38.58;25.13;;;;;;;4.00;81.73;98261.25;4180736;28;20214;-80
2023/03/03 01:17:55;;;;;;;40.90;26.25;;;;;;;4.01;81.61;98265.53;4171804;28;20209;-80
2023/03/03 01:19:59;;;;;;;41.00;25.65;;;;;;;3.95;80.83;98263.19;4189616;28;20214;-81
2023/03/03 01:22:02;;;;;;;41.42;24.90;;;;;;;3.92;81.46;98271.88;4187678;28;20202;-81
2023/03/03 01:24:06;;;;;;;38.83;24.55;;;;;;;3.94;81.46;98266.66;4183701;28;20644;-80
2023/03/03 01:26:09;;;;;;;43.15;26.10;;;;;;;3.95;82.00;98270.94;4185294;28;21372;-82
2023/03/03 01:28:14;;;;;;;40.83;25.80;;;;;;;3.91;81.53;98266.78;4168703;28;20265;-82
2023/03/03 01:30:17;;;;;;;41.00;25.73;;;;;;;3.87;82.14;98262.66;4186800;28;20228;-82
2023/03/03 01:32:20;;;;;;;47.60;27.73;;;;;;;3.84;81.92;98263.63;4196509;28;20205;-81
2023/03/03 01:34:24;;;;;;;47.88;27.17;;;;;;;3.84;82.23;98265.38;4188964;28;20229;-80
2023/03/03 01:36:29;;;;;;;43.83;25.67;;;;;;;3.78;82.65;98265.59;4189811;28;20247;-80
2023/03/03 01:38:35;;;;;;;44.13;27.23;;;;;;;3.74;82.70;98266.63;4172617;28;20216;-80
2023/03/03 01:40:39;;;;;;;45.92;26.55;;;;;;;3.72;83.00;98268.41;4190263;28;20198;-80
2023/03/03 01:42:42;;;;;;;44.22;25.95;;;;;;;3.68;83.54;98269.44;4192859;28;20209;-80
2023/03/03 01:44:45;;;;;;;46.55;26.92;;;;;;;3.64;82.37;98267.88;4170451;28;20207;-80
2023/03/03 01:46:54;;;;;;;42.67;26.27;;;;;;;3.57;82.24;98263.84;4193900;28;20271;-80
2023/03/03 01:49:01;;;;;;;41.67;24.30;;;;;;;3.54;82.63;98258.81;4191477;28;20229;-80
2023/03/03 01:51:08;;;;;;;44.38;24.10;;;;;;;3.56;83.02;98262.16;4171684;28;20266;-80
2023/03/03 01:53:17;;;;;;;43.90;25.25;;;;;;;3.57;83.23;98256.13;4173728;28;20212;-81
2023/03/03 01:55:23;;;;;;;36.15;23.73;;;;;;;3.55;83.10;98250.19;4184793;28;20233;-80
2023/03/03 01:57:29;;;;;;;34.63;23.67;;;;;;;3.54;83.37;98252.81;4193913;28;20201;-80
2023/03/03 01:59:35;;;;;;;40.40;23.95;;;;;;;3.48;82.98;98247.91;4191252;28;20614;-80
2023/03/03 02:01:38;;;;;;;43.05;24.30;;;;;;;3.41;83.22;98244.72;4172456;28;20289;-80
2023/03/03 02:03:43;;;;;;;39.95;25.10;;;;;;;3.39;82.83;98238.78;4170729;28;20842;-82
2023/03/03 02:05:46;;;;;;;38.17;23.23;;;;;;;3.40;83.40;98232.72;4188595;28;20236;-82
2023/03/03 02:07:50;;;;;;;39.15;24.00;;;;;;;3.38;82.99;98241.41;4180641;28;20202;-82
2023/03/03 02:09:59;;;;;;;42.97;23.20;;;;;;;3.25;83.03;98232.47;4220540;28;20220;-82
2023/03/03 02:12:05;;;;;;;41.28;24.90;;;;;;;3.14;82.97;98232.00;4190654;28;20232;-83
2023/03/03 02:14:08;;;;;;;44.60;27.08;;;;;;;3.09;83.85;98236.50;4168520;28;20214;-82
2023/03/03 02:16:16;;;;;;;45.28;25.45;;;;;;;3.12;84.37;98241.53;4179983;28;20216;-83
2023/03/03 02:18:20;;;;;;;46.78;26.20;;;;;;;3.16;84.19;98239.69;4201965;28;20208;-83
2023/03/03 02:20:33;;;;;;;43.55;26.30;;;;;;;3.17;84.50;98239.63;4179207;28;20198;-82
2023/03/03 02:22:43;;;;;;;41.85;24.23;;;;;;;3.17;84.35;98237.06;4165708;28;20219;-82
2023/03/03 02:24:50;;;;;;;40.42;23.90;;;;;;;3.16;83.60;98244.84;4197276;28;20205;-83
2023/03/03 02:26:56;;;;;;;41.35;24.63;;;;;;;3.08;84.04;98249.44;4183973;28;20212;-82
2023/03/03 02:28:59;;;;;;;37.50;23.38;;;;;;;3.08;84.09;98244.28;4185263;28;20206;-82
2023/03/03 02:31:09;;;;;;;37.03;23.65;;;;;;;3.04;84.35;98245.31;4168285;28;20208;-83
2023/03/03 02:33:13;;;;;;;39.35;25.02;;;;;;;2.97;83.97;98246.41;4167250;28;20263;-83
2023/03/03 02:35:31;;;;;;;46.88;26.98;;;;;;;2.93;83.66;98252.56;4189295;28;20210;-82
2023/03/03 02:37:34;;;;;;;41.58;26.73;;;;;;;2.91;83.46;98247.47;4185207;28;20286;-83
2023/03/03 02:39:38;;;;;;;40.05;23.83;;;;;;;2.85;83.43;98244.28;4163928;28;20269;-83
2023/03/03 02:41:45;;;;;;;41.38;23.85;;;;;;;2.83;83.46;98246.09;4185035;28;20364;-82
2023/03/03 02:43:53;;;;;;;42.17;25.98;;;;;;;2.82;83.27;98245.22;4167351;28;20226;-82
2023/03/03 02:45:56;;;;;;;38.53;23.15;;;;;;;2.81;83.09;98247.84;4188604;28;20205;-83
2023/03/03 02:48:00;;;;;;;41.20;23.63;;;;;;;2.83;83.29;98246.09;4185780;28;20236;-83
2023/03/03 02:50:04;;;;;;;42.38;23.92;;;;;;;2.80;83.14;98249.59;4210771;28;20625;-82
2023/03/03 02:52:09;;;;;;;41.10;24.73;;;;;;;2.84;83.34;98253.75;4178308;28;20210;-82
2023/03/03 02:54:18;;;;;;;36.85;22.65;;;;;;;2.86;84.06;98259.69;4186967;28;20208;-82
2023/03/03 02:56:21;;;;;;;40.38;22.90;;;;;;;2.86;84.00;98256.28;4172593;28;20225;-82
2023/03/03 02:58:24;;;;;;;36.78;22.45;;;;;;;2.81;83.59;98247.84;4164819;28;20206;-82
2023/03/03 03:00:29;;;;;;;36.60;22.23;;;;;;;2.80;83.66;98246.19;4182324;28;20212;-83
2023/03/03 03:02:32;;;;;;;36.92;22.33;;;;;;;2.82;83.69;98249.53;4169752;28;20296;-83
2023/03/03 03:04:36;;;;;;;34.85;19.67;;;;;;;2.85;83.44;98249.44;4185096;28;20685;-80
2023/03/03 03:06:40;;;;;;;34.33;22.08;;;;;;;2.86;83.78;98251.13;4183375;28;20322;-81
2023/03/03 03:08:43;;;;;;;35.72;21.77;;;;;;;2.82;83.91;98241.81;4183010;28;20725;-83
2023/03/03 03:10:46;;;;;;;36.25;20.92;;;;;;;2.80;84.83;98244.44;4179469;28;20235;-83
2023/03/03 03:12:50;;;;;;;35.28;21.20;;;;;;;2.75;84.07;98252.38;4184132;28;20564;-80
2023/03/03 03:14:53;;;;;;;37.03;23.27;;;;;;;2.70;84.05;98252.53;4169181;28;20636;-81
2023/03/03 03:16:58;;;;;;;45.67;22.65;;;;;;;2.70;84.36;98252.53;4170986;28;20202;-81
2023/03/03 03:19:04;;;;;;;36.45;19.50;;;;;;;2.72;84.53;98255.06;4201167;28;20223;-80
2023/03/03 03:21:09;;;;;;;36.90;22.52;;;;;;;2.72;84.52;98260.22;4199296;28;20197;-80
2023/03/03 03:23:13;;;;;;;34.10;20.88;;;;;;;2.73;84.36;98262.72;4162901;28;20245;-80
2023/03/03 03:25:17;;;;;;;31.52;20.30;;;;;;;2.77;84.42;98261.75;4185574;28;20205;-80
2023/03/03 03:27:22;;;;;;;35.78;20.83;;;;;;;2.79;85.54;98265.09;4187128;28;20205;-80
2023/03/03 03:29:25;;;;;;;35.60;22.15;;;;;;;2.79;85.14;98260.78;4185622;28;20444;-80
2023/03/03 03:31:29;;;;;;;43.10;23.30;;;;;;;2.83;85.49;98267.50;4186753;28;20199;-80
2023/03/03 03:33:33;;;;;;;34.65;23.30;;;;;;;2.88;85.52;98265.59;4213168;28;20197;-80
2023/03/03 03:35:37;;;;;;;33.03;22.58;;;;;;;2.88;85.87;98254.47;4188513;28;20202;-80
2023/03/03 03:37:40;;;;;;;38.22;23.05;;;;;;;2.90;85.38;98261.25;4198765;28;20208;-80
2023/03/03 03:39:43;;;;;;;42.42;24.17;;;;;;;2.91;85.56;98265.50;4189299;28;20233;-81
2023/03/03 03:41:46;;;;;;;38.65;22.48;;;;;;;2.95;85.67;98268.81;4186895;28;20271;-81
2023/03/03 03:43:49;;;;;;;42.22;24.20;;;;;;;2.93;85.96;98262.88;4190116;28;20702;-81
2023/03/03 03:45:53;;;;;;;39.70;23.02;;;;;;;2.92;85.98;98266.34;4186293;28;20200;-81
2023/03/03 03:47:56;;;;;;;40.35;22.95;;;;;;;2.92;85.68;98256.06;4191014;28;20664;-81
2023/03/03 03:50:00;;;;;;;39.60;23.35;;;;;;;2.91;86.06;98259.50;4175235;28;20237;-83
2023/03/03 03:52:04;;;;;;;36.65;22.70;;;;;;;2.96;85.60;98262.75;4181725;28;20210;-83
2023/03/03 03:54:09;;;;;;;38.92;20.90;;;;;;;2.96;85.81;98266.19;4183686;28;20205;-83
2023/03/03 03:56:13;;;;;;;36.28;22.42;;;;;;;2.97;86.30;98265.28;4185276;28;20354;-82
2023/03/03 03:58:18;;;;;;;36.92;22.10;;;;;;;2.99;86.01;98260.06;4183258;28;20736;-83
2023/03/03 04:00:27;;;;;;;38.35;21.30;;;;;;;3.03;85.91;98261.66;4167069;28;20626;-81
2023/03/03 04:02:34;;;;;;;38.22;22.25;;;;;;;3.02;85.92;98262.53;4185626;28;20275;-81
2023/03/03 04:04:37;;;;;;;31.20;21.33;;;;;;;3.02;85.98;98265.09;4189152;28;20202;-80
2023/03/03 04:06:43;;;;;;;34.28;20.98;;;;;;;3.05;85.71;98272.72;4190991;28;20890;-81
2023/03/03 04:08:47;;;;;;;35.35;22.75;;;;;;;3.03;85.85;98270.22;4182421;28;20647;-80
2023/03/03 04:10:51;;;;;;;33.50;21.88;;;;;;;3.02;85.88;98267.69;4172779;28;20222;-80
2023/03/03 04:12:55;;;;;;;34.85;22.77;;;;;;;2.99;86.22;98266.09;4187513;28;20311;-81
2023/03/03 04:14:59;;;;;;;39.38;24.20;;;;;;;2.95;85.88;98267.06;4193292;28;20300;-81
2023/03/03 04:17:03;;;;;;;38.80;22.70;;;;;;;2.98;85.75;98269.53;4170210;28;20303;-81
2023/03/03 04:19:06;;;;;;;38.00;23.38;;;;;;;2.98;85.72;98271.28;4175798;28;20286;-81
2023/03/03 04:21:13;;;;;;;36.95;21.75;;;;;;;2.90;86.16;98271.56;4191322;28;20685;-81
2023/03/03 04:23:18;;;;;;;33.38;21.35;;;;;;;2.89;86.29;98261.31;4203715;28;20209;-80
2023/03/03 04:25:21;;;;;;;32.95;20.88;;;;;;;2.87;86.07;98266.50;4173062;28;20679;-80
2023/03/03 04:27:26;;;;;;;31.73;20.60;;;;;;;2.89;86.06;98266.47;4168046;28;20210;-80
2023/03/03 04:29:29;;;;;;;34.78;20.80;;;;;;;2.86;86.34;98266.56;4190223;28;20206;-80
2023/03/03 04:31:34;;;;;;;34.63;21.17;;;;;;;2.84;85.89;98273.50;4171255;28;20576;-83
2023/03/03 04:33:40;;;;;;;32.97;20.98;;;;;;;2.85;85.98;98277.75;4188602;28;20204;-81
2023/03/03 04:35:43;;;;;;;35.65;21.42;;;;;;;2.82;86.31;98277.84;4169283;28;20213;-81
2023/03/03 04:37:47;;;;;;;33.70;21.48;;;;;;;2.81;86.06;98284.75;4176726;28;20206;-81
2023/03/03 04:39:52;;;;;;;32.08;20.27;;;;;;;2.83;85.74;98288.09;4186107;28;20213;-81
2023/03/03 04:41:55;;;;;;;36.78;22.40;;;;;;;2.87;85.83;98291.41;4186059;28;20228;-81
2023/03/03 04:43:59;;;;;;;40.38;22.55;;;;;;;2.90;85.31;98286.16;4176021;28;20288;-80
2023/03/03 04:46:02;;;;;;;33.40;20.52;;;;;;;2.88;85.62;98281.06;4195039;28;20205;-80
2023/03/03 04:48:07;;;;;;;34.45;21.10;;;;;;;2.85;85.54;98278.59;4174963;28;20206;-81
2023/03/03 04:50:11;;;;;;;36.85;21.20;;;;;;;2.84;85.27;98288.94;4215823;28;20736;-81
2023/03/03 04:52:15;;;;;;;34.15;20.98;;;;;;;2.85;85.81;98282.91;4192557;28;20284;-81
2023/03/03 04:54:18;;;;;;;35.22;21.13;;;;;;;2.87;86.09;98289.69;4203525;28;20204;-83
2023/03/03 04:56:23;;;;;;;31.98;21.15;;;;;;;2.87;86.01;98300.00;4178997;28;20609;-81
2023/03/03 04:58:26;;;;;;;36.53;21.77;;;;;;;2.86;86.39;98294.88;4181802;28;20206;-81
2023/03/03 05:00:30;;;;;;;37.47;21.80;;;;;;;2.89;85.76;98297.38;4170172;28;20289;-81
2023/03/03 05:02:35;;;;;;;36.55;22.52;;;;;;;2.90;86.43;98302.47;4190602;28;20204;-81
2023/03/03 05:04:38;;;;;;;35.92;22.50;;;;;;;2.90;86.46;98299.03;4202066;28;20288;-81
2023/03/03 05:06:42;;;;;;;35.55;21.33;;;;;;;2.89;86.75;98297.38;4189588;28;20260;-81
2023/03/03 05:08:45;;;;;;;37.05;22.90;;;;;;;2.90;86.51;98293.88;4194522;28;20213;-81
2023/03/03 05:10:51;;;;;;;34.25;20.90;;;;;;;2.91;86.46;98298.13;4187078;28;20209;-81
2023/03/03 05:12:56;;;;;;;37.85;22.02;;;;;;;2.93;86.34;98293.75;4191058;28;20201;-81
2023/03/03 05:14:59;;;;;;;39.60;22.27;;;;;;;3.01;85.71;98304.66;4184401;28;20208;-81
2023/03/03 05:17:03;;;;;;;39.05;21.15;;;;;;;3.00;85.50;98308.13;4171509;28;20237;-80
2023/03/03 05:19:06;;;;;;;35.08;20.65;;;;;;;2.98;84.87;98297.88;4188683;28;20243;-81
2023/03/03 05:21:09;;;;;;;33.38;21.83;;;;;;;2.98;85.58;98307.34;4220993;27;20304;-81
2023/03/03 05:23:12;;;;;;;35.15;21.17;;;;;;;2.96;85.31;98306.53;4172791;28;20221;-81
2023/03/03 05:25:15;;;;;;;39.63;23.95;;;;;;;2.89;85.69;98307.66;4172511;28;20222;-81
2023/03/03 05:27:19;;;;;;;35.42;21.08;;;;;;;2.90;85.14;98310.19;4165448;28;20206;-81
2023/03/03 05:29:23;;;;;;;34.17;21.50;;;;;;;2.89;85.55;98307.66;4170273;28;20215;-81
2023/03/03 05:31:26;;;;;;;32.75;22.05;;;;;;;2.93;85.50;98314.38;4185016;28;20226;-81
2023/03/03 05:33:29;;;;;;;42.10;24.35;;;;;;;2.91;85.78;98311.00;4194699;28;20209;-81
2023/03/03 05:35:32;;;;;;;38.20;23.45;;;;;;;2.94;85.65;98310.91;4188003;28;20253;-81
2023/03/03 05:37:35;;;;;;;36.83;21.60;;;;;;;3.00;86.18;98323.56;4173414;28;20305;-81
2023/03/03 05:39:39;;;;;;;48.20;26.33;;;;;;;3.01;85.77;98320.09;4169986;28;20694;-81
2023/03/03 05:41:42;;;;;;;39.92;24.10;;;;;;;3.02;85.54;98324.34;4191572;28;20221;-81
2023/03/03 05:43:45;;;;;;;36.03;23.50;;;;;;;2.98;85.48;98323.63;4171257;28;20740;-81
2023/03/03 05:45:54;;;;;;;40.42;24.00;;;;;;;2.98;86.04;98323.63;4191881;28;20217;-81
2023/03/03 05:47:59;;;;;;;37.60;23.10;;;;;;;2.98;86.25;98322.78;4175146;28;20230;-81
2023/03/03 05:50:03;;;;;;;37.10;23.23;;;;;;;3.02;86.01;98324.34;4169910;28;20233;-80
2023/03/03 05:52:08;;;;;;;41.60;23.98;;;;;;;3.06;86.04;98324.19;4204269;28;20696;-80
2023/03/03 05:54:11;;;;;;;38.03;24.02;;;;;;;3.03;86.10;98331.19;4203044;28;20205;-80
2023/03/03 05:56:14;;;;;;;38.90;23.88;;;;;;;3.02;85.82;98332.06;4181628;28;20700;-81
2023/03/03 05:58:17;;;;;;;39.83;24.52;;;;;;;3.00;85.79;98336.44;4199311;28;20232;-81
2023/03/03 06:00:21;;;;;;;38.10;23.55;;;;;;;3.00;86.42;98329.56;4185470;28;20237;-80
2023/03/03 06:02:25;;;;;;;39.28;24.65;;;;;;;2.98;86.49;98328.78;4191174;28;20202;-81
2023/03/03 06:04:29;;;;;;;41.05;24.27;;;;;;;2.99;86.03;98332.19;4192265;28;20260;-81
2023/03/03 06:06:32;;;;;;;38.13;23.65;;;;;;;2.99;86.25;98337.31;4185231;28;20217;-81
2023/03/03 06:08:35;;;;;;;40.72;25.02;;;;;;;3.01;86.26;98335.56;4187444;28;20213;-81
2023/03/03 06:10:40;;;;;;;39.67;25.67;;;;;;;3.02;86.43;98342.38;4188084;28;20669;-81
2023/03/03 06:12:45;;;;;;;43.85;26.88;;;;;;;3.02;86.26;98334.66;4182410;28;20221;-81
2023/03/03 06:14:48;;;;;;;38.50;24.50;;;;;;;3.04;86.21;98344.00;4186591;28;20240;-81
2023/03/03 06:16:52;;;;;;;42.38;25.80;;;;;;;3.03;86.28;98342.31;4184789;28;20695;-81
2023/03/03 06:18:56;;;;;;;43.28;25.83;;;;;;;3.06;86.42;98341.38;4186650;28;20205;-81
2023/03/03 06:20:59;;;;;;;47.83;26.90;;;;;;;3.07;86.41;98350.81;4188416;28;20216;-81
2023/03/03 06:23:02;;;;;;;49.60;27.52;;;;;;;3.03;86.00;98357.78;4190373;28;20232;-81
2023/03/03 06:25:06;;;;;;;42.35;27.23;;;;;;;2.99;85.86;98363.94;4184791;28;20288;-81
2023/03/03 06:27:10;;;;;;;43.15;27.30;;;;;;;3.00;86.43;98367.34;4176503;28;20694;-81
2023/03/03 06:29:13;;;;;;;45.63;28.35;;;;;;;3.04;86.69;98366.38;4173885;28;20272;-81
2023/03/03 06:31:17;;;;;;;42.47;26.20;;;;;;;3.07;86.35;98359.34;4181969;28;20233;-81
2023/03/03 06:33:20;;;;;;;44.42;27.15;;;;;;;3.12;86.51;98364.34;4183948;28;20287;-81
2023/03/03 06:35:25;;;;;;;45.75;28.42;;;;;;;3.12;86.14;98372.91;4189533;28;20201;-81
2023/03/03 06:37:28;;;;;;;42.83;26.65;;;;;;;3.12;86.79;98378.06;4179886;28;20206;-80
2023/03/03 06:39:31;;;;;;;45.45;27.73;;;;;;;3.16;86.30;98379.66;4188115;28;20549;-81
2023/03/03 06:41:34;;;;;;;42.80;27.25;;;;;;;3.22;85.39;98376.00;4169726;28;20234;-81
2023/03/03 06:43:38;;;;;;;46.45;28.17;;;;;;;3.17;85.57;98378.72;4181723;28;20212;-81
2023/03/03 06:45:42;;;;;;;42.45;28.00;;;;;;;3.19;86.50;98373.53;4183014;28;20609;-81
2023/03/03 06:47:45;;;;;;;50.78;29.60;;;;;;;3.24;86.08;98374.22;4185764;28;20208;-78
2023/03/03 06:49:48;;;;;;;44.92;26.75;;;;;;;3.28;85.86;98380.06;4200991;28;20743;-80
2023/03/03 06:51:52;;;;;;;46.17;28.95;;;;;;;3.33;85.38;98385.88;4188442;28;20197;-80
2023/03/03 06:53:57;;;;;;;41.22;27.70;;;;;;;3.30;85.73;98388.56;4188834;28;20209;-79
2023/03/03 06:56:02;;;;;;;43.25;26.30;;;;;;;3.34;85.68;98379.84;4190700;28;20217;-79
2023/03/03 06:58:09;;;;;;;46.05;26.48;;;;;;;3.40;85.78;98389.09;4179433;28;20224;-82
2023/03/03 07:00:16;;;;;;;45.78;27.73;;;;;;;3.45;85.28;98388.03;4192514;28;20216;-81
2023/03/03 07:02:20;;;;;;;45.30;27.25;;;;;;;3.43;85.98;98391.56;4189865;28;20200;-82
2023/03/03 07:04:29;;;;;;;44.00;28.00;;;;;;;3.45;85.31;98395.75;4170353;28;20202;-82
2023/03/03 07:06:32;;;;;;;43.92;26.25;;;;;;;3.48;85.24;98398.22;4184022;28;20236;-81
2023/03/03 07:08:39;;;;;;;41.83;26.73;;;;;;;3.49;85.83;98393.94;4190496;28;20266;-81
2023/03/03 07:10:42;;;;;;;47.47;28.27;;;;;;;3.53;85.28;98392.91;4181079;28;20673;-82
2023/03/03 07:12:46;;;;;;;48.65;28.02;;;;;;;3.60;85.94;98391.81;4189568;28;20283;-83
2023/03/03 07:14:54;;;;;;;41.00;26.50;;;;;;;3.65;85.70;98392.47;4186233;28;20719;-83
2023/03/03 07:17:00;;;;;;;39.33;24.95;;;;;;;3.71;85.58;98400.81;4188237;28;20210;-81
2023/03/03 07:19:05;;;;;;;46.70;26.65;;;;;;;3.78;86.57;98397.13;4171020;28;20206;-82
2023/03/03 07:21:16;;;;;;;42.63;26.60;;;;;;;3.84;85.43;98408.03;4213635;28;20625;-83
2023/03/03 07:23:24;;;;;;;46.50;25.60;;;;;;;3.88;85.76;98409.63;4200112;28;20212;-85
2023/03/03 07:25:31;;;;;;;49.53;29.08;;;;;;;3.93;85.45;98409.44;4179760;28;20239;-82
2023/03/03 07:27:34;;;;;;;47.25;28.67;;;;;;;3.98;86.01;98410.09;4178079;28;20620;-82
2023/03/03 07:29:40;;;;;;;44.53;27.77;;;;;;;4.01;84.23;98415.16;4186068;28;20704;-82
2023/03/03 07:31:46;;;;;;;41.55;27.30;;;;;;;4.05;84.86;98409.00;4180781;28;20213;-82
2023/03/03 07:33:50;;;;;;;43.35;28.38;;;;;;;4.08;84.01;98416.63;4189044;28;20252;-83
2023/03/03 07:35:55;;;;;;;45.88;28.75;;;;;;;4.12;84.96;98420.75;4177490;28;20213;-83
2023/03/03 07:37:58;;;;;;;46.40;28.90;;;;;;;4.20;85.20;98428.13;4189769;28;20198;-83
2023/03/03 07:40:03;;;;;;;45.17;27.58;;;;;;;4.28;83.71;98426.13;4176254;28;20205;-83
2023/03/03 07:42:21;;;;;;;40.20;26.00;;;;;;;4.24;82.68;98424.56;4190302;28;20221;-83
2023/03/03 07:44:35;;;;;;;40.28;25.40;;;;;;;4.26;83.44;98433.06;4186292;28;20731;-85
2023/03/03 07:46:41;;;;;;;44.22;26.92;;;;;;;4.33;83.84;98438.84;4181373;28;20212;-85
2023/03/03 07:48:44;;;;;;;46.00;28.08;;;;;;;4.38;84.08;98436.94;4190832;28;20591;-83
2023/03/03 07:50:48;;;;;;;40.53;26.60;;;;;;;4.38;82.91;98427.44;4190709;28;20197;-83
2023/03/03 07:52:57;;;;;;;45.83;28.30;;;;;;;4.41;83.88;98445.41;4188490;28;20221;-83
2023/03/03 07:55:03;;;;;;;41.90;28.15;;;;;;;4.50;83.15;98441.63;4218139;28;20257;-83
2023/03/03 07:57:15;;;;;;;44.35;29.25;;;;;;;4.54;83.99;98438.88;4164993;28;20211;-83
2023/03/03 07:59:25;;;;;;;43.22;27.13;;;;;;;4.64;83.77;98440.16;4175110;28;20266;-85
2023/03/03 08:01:41;;;;;;;46.45;29.45;;;;;;;4.80;84.38;98442.09;4173516;28;20245;-85
2023/03/03 08:03:45;;;;;;;45.47;28.55;;;;;;;4.93;84.65;98453.63;4178664;28;20713;-85
2023/03/03 08:05:49;;;;;;;50.63;30.10;;;;;;;5.18;84.89;98451.69;4186946;28;20246;-85
2023/03/03 08:07:52;;;;;;;43.30;26.70;;;;;;;5.45;82.04;98455.72;4186812;28;20197;-85
2023/03/03 08:09:58;;;;;;;50.15;28.40;;;;;;;5.76;81.73;98462.13;4173887;28;20271;-85
2023/03/03 08:12:24;;;;;;;46.03;26.70;;;;;;;5.97;80.45;98458.59;4186996;28;20798;-86
2023/03/03 08:14:31;;;;;;;44.60;28.58;;;;;;;6.18;79.50;98468.84;4185706;28;20794;-85
2023/03/03 08:16:37;;;;;;;47.10;28.08;;;;;;;6.32;78.79;98472.47;4184169;28;20476;-85
2023/03/03 08:18:42;;;;;;;45.00;28.10;;;;;;;6.38;77.95;98466.19;4186933;28;20220;-85
2023/03/03 08:20:47;;;;;;;48.85;29.08;;;;;;;6.48;78.60;98470.88;4173677;28;20236;-84
2023/03/03 08:22:50;;;;;;;47.72;29.35;;;;;;;6.65;78.73;98468.34;4183025;28;20232;-84
2023/03/03 08:24:53;;;;;;;47.47;31.33;;;;;;;6.84;78.47;98470.00;4188773;28;20198;-84
2023/03/03 08:26:57;;;;;;;43.75;28.85;;;;;;;6.96;76.43;98474.59;4185950;28;20201;-84
2023/03/03 08:29:00;;;;;;;45.92;29.45;;;;;;;7.05;77.39;98482.75;4189393;28;20298;-84
2023/03/03 08:31:05;;;;;;;45.60;30.27;;;;;;;7.23;78.91;98465.44;4188075;28;20290;-84
2023/03/03 08:33:27;;;;;;;44.47;28.83;;;;;;;7.39;77.73;98477.59;4185239;28;20730;-83
2023/03/03 08:35:30;;;;;;;41.53;28.52;;;;;;;7.56;76.90;98482.78;4186614;28;20262;-83
2023/03/03 08:37:33;;;;;;;46.90;30.05;;;;;;;7.60;76.21;98481.72;4198144;28;20203;-83
2023/03/03 08:39:37;;;;;;;58.67;34.28;;;;;;;7.70;75.50;98478.56;4185464;28;20667;-83
2023/03/03 08:41:42;;;;;;;48.25;30.15;;;;;;;7.79;75.09;98479.88;4183167;28;20861;-83
2023/03/03 08:43:45;;;;;;;51.92;31.55;;;;;;;7.76;73.83;98477.44;4201471;28;20213;-83
2023/03/03 08:45:50;;;;;;;50.20;31.65;;;;;;;7.62;76.41;98479.88;4175176;28;20212;-83
2023/03/03 08:47:55;;;;;;;47.60;30.52;;;;;;;7.40;76.25;98478.44;4189396;28;20306;-83
2023/03/03 08:49:58;;;;;;;49.75;30.85;;;;;;;7.16;76.79;98474.47;4174440;28;20264;-83
2023/03/03 08:52:01;;;;;;;40.38;28.02;;;;;;;6.99;76.13;98468.41;4185899;28;20205;-83
2023/03/03 08:54:05;;;;;;;45.67;29.77;;;;;;;6.85;76.20;98470.81;4186361;28;20219;-83
2023/03/03 08:56:09;;;;;;;48.65;30.77;;;;;;;6.80;77.00;98470.22;4200284;28;20229;-83
2023/03/03 08:58:12;;;;;;;46.65;31.17;;;;;;;6.70;77.38;98474.13;4165947;28;20297;-83
2023/03/03 09:00:17;;;;;;;48.60;31.25;;;;;;;6.66;77.70;98472.59;4192162;28;20224;-83
2023/03/03 09:02:20;;;;;;;44.33;29.00;;;;;;;6.63;77.14;98478.78;4189112;28;20209;-83
2023/03/03 09:04:25;;;;;;;49.13;31.45;;;;;;;6.61;76.97;98472.84;4177289;28;20203;-83
2023/03/03 09:06:28;;;;;;;45.63;30.52;;;;;;;6.58;77.20;98477.28;4183871;28;20246;-83
2023/03/03 09:08:31;;;;;;;52.50;32.60;;;;;;;6.56;77.30;98476.53;4177206;28;20226;-83
2023/03/03 09:10:34;;;;;;;47.35;31.10;;;;;;;6.58;79.19;98478.16;4186339;28;20215;-83
2023/03/03 09:12:40;;;;;;;46.10;30.50;;;;;;;6.64;79.39;98479.59;4187995;28;20307;-83
2023/03/03 09:14:43;;;;;;;44.22;30.55;;;;;;;6.73;79.74;98481.75;4187350;28;20223;-83
2023/03/03 09:16:50;;;;;;;46.42;30.35;;;;;;;6.82;79.66;98484.75;4174542;28;20225;-83
2023/03/03 09:18:53;;;;;;;48.40;31.33;;;;;;;6.87;78.96;98487.13;4185963;28;20210;-83
2023/03/03 09:20:58;;;;;;;45.95;29.92;;;;;;;6.92;77.67;98490.38;4177191;28;20213;-83
2023/03/03 09:23:29;;;;;;;49.95;31.45;;;;;;;6.99;78.94;98495.19;4172545;28;20315;-83
2023/03/03 09:25:34;;;;;;;53.78;31.42;;;;;;;7.10;79.30;98495.50;4187948;28;20233;-83
2023/03/03 09:27:38;;;;;;;45.72;28.83;;;;;;;7.18;78.86;98503.75;4215991;28;20221;-83
2023/03/03 09:29:41;;;;;;;44.28;29.35;;;;;;;7.21;77.11;98507.03;4173463;28;20216;-83
2023/03/03 09:31:45;;;;;;;43.90;29.45;;;;;;;7.24;78.37;98499.09;4178704;28;24401;-86
2023/03/03 09:33:50;;;;;;;45.28;28.88;;;;;;;7.34;75.91;98496.91;4186064;28;20234;-87
2023/03/03 09:35:58;;;;;;;39.92;27.83;;;;;;;7.44;77.19;98496.34;4174662;28;20213;-86
2023/03/03 09:38:02;;;;;;;44.28;29.90;;;;;;;7.52;76.33;98504.63;4198444;28;20926;-86
2023/03/03 09:40:19;;;;;;;38.80;27.38;;;;;;;7.61;76.88;98505.00;4168187;28;20248;-86